createdAt,value
2017-05-24T00:02:18.227Z,11.12
2017-05-24T00:04:47.055Z,11.96
2017-05-24T00:07:15.902Z,12.00
2017-05-24T00:09:44.739Z,11.08
2017-05-24T00:12:13.583Z,11.84
2017-05-24T00:14:42.419Z,11.04
2017-05-24T00:17:11.272Z,11.02
2017-05-24T00:19:40.110Z,12.20
2017-05-24T00:22:08.973Z,11.96
2017-05-24T00:24:37.823Z,11.14
2017-05-24T00:27:06.650Z,11.88
2017-05-24T00:29:34.725Z,12.10
2017-05-24T00:32:03.557Z,9.44
2017-05-24T00:34:32.395Z,11.02
2017-05-24T00:37:01.236Z,12.06
2017-05-24T00:39:30.080Z,11.44
2017-05-24T00:41:58.930Z,10.56
2017-05-24T00:44:27.765Z,9.90
2017-05-24T00:46:56.605Z,10.10
2017-05-24T00:49:25.443Z,11.70
2017-05-24T00:51:54.302Z,10.62
2017-05-24T00:54:23.152Z,11.68
2017-05-24T00:56:52.008Z,12.02
2017-05-24T00:59:21.144Z,11.38
2017-05-24T01:01:49.979Z,11.80
2017-05-24T01:04:18.050Z,11.58
2017-05-24T01:06:46.893Z,12.90
2017-05-24T01:09:15.726Z,13.24
2017-05-24T01:11:44.569Z,9.84
2017-05-24T01:14:13.402Z,11.50
2017-05-24T01:16:42.264Z,11.76
2017-05-24T01:19:11.099Z,11.82
2017-05-24T01:21:39.942Z,10.06
2017-05-24T01:24:08.785Z,16.44
2017-05-24T01:26:37.615Z,8.24
2017-05-24T01:29:06.465Z,7.16
2017-05-24T01:31:35.273Z,7.60
2017-05-24T01:34:04.128Z,10.84
2017-05-24T01:36:32.967Z,11.22
2017-05-24T01:39:01.794Z,7.16
2017-05-24T01:41:30.633Z,6.22
2017-05-24T01:43:59.669Z,8.88
2017-05-24T01:46:28.559Z,8.48
2017-05-24T01:48:57.383Z,9.18
2017-05-24T01:51:26.241Z,5.56
2017-05-24T01:53:55.063Z,5.58
2017-05-24T01:56:23.899Z,5.30
2017-05-24T01:58:52.737Z,5.78
2017-05-24T02:01:21.568Z,5.90
2017-05-24T02:03:50.423Z,4.66
2017-05-24T02:06:19.253Z,5.08
2017-05-24T02:08:48.089Z,5.42
2017-05-24T02:11:16.920Z,4.42
2017-05-24T02:13:45.743Z,7.50
2017-05-24T02:16:13.816Z,5.48
2017-05-24T02:18:42.657Z,5.28
2017-05-24T02:21:11.487Z,5.10
2017-05-24T02:23:40.398Z,4.26
2017-05-24T02:26:09.232Z,9.28
2017-05-24T02:28:38.067Z,5.18
2017-05-24T02:31:06.891Z,6.60
2017-05-24T02:33:34.963Z,4.48
2017-05-24T02:36:03.791Z,4.50
2017-05-24T02:38:32.627Z,4.88
2017-05-24T02:41:01.447Z,4.42
2017-05-24T02:43:30.293Z,5.66
2017-05-24T02:45:59.124Z,3.90
2017-05-24T02:48:27.947Z,4.38
2017-05-24T02:50:56.800Z,5.24
2017-05-24T02:53:25.627Z,10.00
2017-05-24T02:55:54.463Z,4.68
2017-05-24T02:58:23.292Z,7.08
2017-05-24T03:00:52.130Z,5.22
2017-05-24T03:03:20.998Z,4.50
2017-05-24T03:05:49.819Z,4.76
2017-05-24T03:08:18.652Z,6.66
2017-05-24T03:10:47.476Z,6.06
2017-05-24T03:13:16.320Z,6.16
2017-05-24T03:15:45.198Z,6.44
2017-05-24T03:18:14.041Z,4.66
2017-05-24T03:20:42.888Z,5.14
2017-05-24T03:23:11.719Z,5.26
2017-05-24T03:25:40.559Z,6.46
2017-05-24T03:28:09.394Z,9.92
2017-05-24T03:30:38.235Z,5.60
2017-05-24T03:33:07.091Z,5.10
2017-05-24T03:35:35.959Z,5.36
2017-05-24T03:38:04.804Z,4.12
2017-05-24T03:40:33.636Z,6.84
2017-05-24T03:43:02.477Z,4.04
2017-05-24T03:45:31.307Z,6.66
2017-05-24T03:48:00.155Z,4.96
2017-05-24T03:50:28.992Z,6.42
2017-05-24T03:52:57.820Z,2.80
2017-05-24T03:55:25.915Z,4.72
2017-05-24T03:57:54.736Z,4.20
2017-05-24T04:00:23.563Z,3.30
2017-05-24T04:02:52.543Z,2.94
2017-05-24T04:05:21.638Z,2.24
2017-05-24T04:07:50.483Z,3.02
2017-05-24T04:10:19.328Z,5.44
2017-05-24T04:12:48.158Z,4.38
2017-05-24T04:15:17.011Z,6.22
2017-05-24T04:17:45.127Z,2.78
2017-05-24T04:20:14.000Z,3.84
2017-05-24T04:22:42.831Z,3.92
2017-05-24T04:25:11.668Z,4.94
2017-05-24T04:27:40.517Z,4.64
2017-05-24T04:30:08.588Z,6.26
2017-05-24T04:32:37.424Z,3.62
2017-05-24T04:35:06.253Z,3.06
2017-05-24T04:37:35.096Z,4.86
2017-05-24T04:40:03.921Z,5.70
2017-05-24T04:42:32.771Z,3.70
2017-05-24T04:45:01.600Z,2.20
2017-05-24T04:47:30.441Z,4.02
2017-05-24T04:49:59.278Z,3.66
2017-05-24T04:52:27.352Z,4.54
2017-05-24T04:54:56.296Z,2.54
2017-05-24T04:57:25.131Z,3.86
2017-05-24T04:59:53.992Z,2.58
2017-05-24T05:02:22.818Z,2.94
2017-05-24T05:04:51.685Z,3.36
2017-05-24T05:07:20.516Z,7.34
2017-05-24T05:09:49.344Z,2.56
2017-05-24T05:12:18.181Z,4.06
2017-05-24T05:14:47.024Z,2.72
2017-05-24T05:17:15.863Z,3.40
2017-05-24T05:19:44.696Z,2.36
2017-05-24T05:22:13.535Z,3.38
2017-05-24T05:24:42.383Z,4.82
2017-05-24T05:27:11.234Z,7.48
2017-05-24T05:29:40.065Z,3.50
2017-05-24T05:32:08.909Z,2.70
2017-05-24T05:34:37.732Z,5.16
2017-05-24T05:37:06.577Z,2.60
2017-05-24T05:39:35.635Z,2.90
2017-05-24T05:42:04.469Z,3.34
2017-05-24T05:44:33.310Z,3.82
2017-05-24T05:47:02.147Z,3.82
2017-05-24T05:49:30.990Z,3.38
2017-05-24T05:51:59.832Z,4.34
2017-05-24T05:54:27.896Z,5.98
2017-05-24T05:56:55.998Z,3.08
2017-05-24T05:59:24.837Z,3.74
2017-05-24T06:01:53.675Z,4.00
2017-05-24T06:04:22.514Z,3.46
2017-05-24T06:06:51.336Z,2.84
2017-05-24T06:09:20.196Z,2.42
2017-05-24T06:11:49.043Z,9.44
2017-05-24T06:14:17.885Z,3.02
2017-05-24T06:16:46.726Z,4.16
2017-05-24T06:19:15.552Z,3.90
2017-05-24T06:21:44.398Z,3.30
2017-05-24T06:24:13.233Z,8.14
2017-05-24T06:26:42.076Z,3.48
2017-05-24T06:29:10.904Z,6.86
2017-05-24T06:31:39.766Z,5.00
2017-05-24T06:34:08.595Z,4.88
2017-05-24T06:36:37.427Z,2.80
2017-05-24T06:39:06.263Z,5.90
2017-05-24T06:41:35.102Z,2.74
2017-05-24T06:44:03.965Z,3.82
2017-05-24T06:46:32.788Z,4.18
2017-05-24T06:49:01.659Z,4.14
2017-05-24T06:51:30.486Z,3.64
2017-05-24T06:53:58.549Z,6.30
2017-05-24T06:56:27.400Z,3.00
2017-05-24T06:58:56.223Z,2.40
2017-05-24T07:01:25.065Z,3.38
2017-05-24T07:03:53.880Z,3.46
2017-05-24T07:06:22.722Z,4.88
2017-05-24T07:08:51.568Z,2.32
2017-05-24T07:11:20.445Z,4.68
2017-05-24T07:13:49.284Z,5.00
2017-05-24T07:16:18.104Z,3.80
2017-05-24T07:18:46.948Z,2.82
2017-05-24T07:21:15.782Z,7.16
2017-05-24T07:23:59.519Z,2.98
2017-05-24T07:26:28.348Z,1.84
2017-05-24T07:28:57.208Z,2.22
2017-05-24T07:31:26.028Z,4.42
2017-05-24T07:33:54.865Z,2.88
2017-05-24T07:36:23.699Z,5.48
2017-05-24T07:38:52.532Z,2.18
2017-05-24T07:41:21.369Z,3.48
2017-05-24T07:43:50.197Z,2.50
2017-05-24T07:46:19.024Z,5.50
2017-05-24T07:48:47.866Z,4.22
2017-05-24T07:51:16.722Z,3.60
2017-05-24T07:53:45.553Z,1.84
2017-05-24T07:56:14.384Z,4.82
2017-05-24T07:58:43.222Z,4.10
2017-05-24T08:01:12.066Z,2.26
2017-05-24T08:03:40.915Z,2.44
2017-05-24T08:06:09.750Z,3.04
2017-05-24T08:08:38.599Z,3.04
2017-05-24T08:11:07.619Z,6.86
2017-05-24T08:13:36.535Z,2.46
2017-05-24T08:16:05.400Z,6.26
2017-05-24T08:18:34.222Z,2.14
2017-05-24T08:21:03.069Z,5.48
2017-05-24T08:23:31.896Z,3.50
2017-05-24T08:26:00.742Z,2.12
2017-05-24T08:28:29.567Z,2.52
2017-05-24T08:30:58.423Z,2.70
2017-05-24T08:33:27.263Z,4.66
2017-05-24T08:35:56.096Z,4.76
2017-05-24T08:38:24.940Z,3.64
2017-05-24T08:40:53.787Z,3.34
2017-05-24T08:43:22.654Z,1.90
2017-05-24T08:45:51.501Z,3.46
2017-05-24T08:48:20.323Z,4.74
2017-05-24T08:50:49.177Z,5.02
2017-05-24T08:53:18.003Z,2.22
2017-05-24T08:55:46.868Z,2.30
2017-05-24T08:58:15.693Z,3.00
2017-05-24T09:00:44.559Z,4.50
2017-05-24T09:03:13.384Z,3.88
2017-05-24T09:05:42.215Z,1.78
2017-05-24T09:08:11.041Z,1.64
2017-05-24T09:10:39.871Z,7.16
2017-05-24T09:13:07.962Z,7.12
2017-05-24T09:15:36.780Z,1.44
2017-05-24T09:18:05.650Z,3.46
2017-05-24T09:20:34.491Z,2.82
2017-05-24T09:23:03.315Z,3.62
2017-05-24T09:25:32.148Z,4.14
2017-05-24T09:28:00.996Z,4.46
2017-05-24T09:30:29.826Z,6.52
2017-05-24T09:32:58.658Z,4.80
2017-05-24T09:35:27.483Z,3.34
2017-05-24T09:37:56.328Z,1.80
2017-05-24T09:40:25.169Z,3.06
2017-05-24T09:42:54.019Z,2.78
2017-05-24T09:45:22.842Z,4.22
2017-05-24T09:47:51.676Z,1.96
2017-05-24T09:50:20.520Z,4.38
2017-05-24T09:52:49.363Z,3.24
2017-05-24T09:55:18.203Z,5.50
2017-05-24T09:57:47.023Z,2.26
2017-05-24T10:00:15.855Z,2.18
2017-05-24T10:02:44.683Z,4.52
2017-05-24T10:05:13.645Z,3.40
2017-05-24T10:07:42.490Z,4.84
2017-05-24T10:10:11.312Z,2.16
2017-05-24T10:12:40.141Z,4.56
2017-05-24T10:15:08.996Z,2.16
2017-05-24T10:17:37.844Z,2.74
2017-05-24T10:20:06.668Z,5.42
2017-05-24T10:22:35.516Z,4.82
2017-05-24T10:25:04.348Z,3.26
2017-05-24T10:27:33.175Z,3.64
2017-05-24T10:30:02.020Z,5.24
2017-05-24T10:32:31.015Z,6.06
2017-05-24T10:34:59.924Z,2.32
2017-05-24T10:37:28.747Z,2.12
2017-05-24T10:40:11.592Z,2.90
2017-05-24T10:42:40.416Z,3.72
2017-05-24T10:45:09.244Z,4.44
2017-05-24T10:47:38.090Z,6.40
2017-05-24T10:50:06.915Z,2.54
2017-05-24T10:52:35.753Z,4.90
2017-05-24T10:55:04.596Z,8.24
2017-05-24T10:57:33.443Z,2.44
2017-05-24T11:00:02.267Z,3.60
2017-05-24T11:02:31.108Z,3.52
2017-05-24T11:04:59.940Z,2.98
2017-05-24T11:07:28.779Z,3.76
2017-05-24T11:09:57.635Z,2.40
2017-05-24T11:12:25.705Z,5.00
2017-05-24T11:14:54.572Z,2.86
2017-05-24T11:17:23.402Z,4.98
2017-05-24T11:19:52.243Z,4.70
2017-05-24T11:22:21.075Z,4.58
2017-05-24T11:24:49.900Z,2.54
2017-05-24T11:27:18.731Z,3.84
2017-05-24T11:29:47.562Z,3.74
2017-05-24T11:32:15.639Z,6.32
2017-05-24T11:34:43.711Z,3.74
2017-05-24T11:37:12.537Z,5.58
2017-05-24T11:39:41.368Z,4.36
2017-05-24T11:42:10.213Z,3.70
2017-05-24T11:44:39.062Z,4.00
2017-05-24T11:47:07.891Z,2.84
2017-05-24T11:49:36.739Z,3.54
2017-05-24T11:52:05.572Z,2.72
2017-05-24T11:54:34.403Z,2.76
2017-05-24T11:57:03.245Z,5.16
2017-05-24T11:59:32.069Z,4.72
2017-05-24T12:02:00.918Z,4.96
2017-05-24T12:04:29.754Z,4.14
2017-05-24T12:06:58.617Z,2.70
2017-05-24T12:09:27.441Z,3.04
2017-05-24T12:11:55.524Z,5.76
2017-05-24T12:14:24.370Z,2.88
2017-05-24T12:16:52.427Z,4.12
2017-05-24T12:19:21.257Z,3.14
2017-05-24T12:21:50.091Z,4.28
2017-05-24T12:24:18.928Z,6.52
2017-05-24T12:26:47.759Z,3.04
2017-05-24T12:29:16.575Z,3.60
2017-05-24T12:31:45.409Z,8.48
2017-05-24T12:34:14.255Z,7.42
2017-05-24T12:36:43.090Z,5.24
2017-05-24T12:39:11.912Z,3.74
2017-05-24T12:41:40.012Z,4.66
2017-05-24T12:44:08.837Z,7.06
2017-05-24T12:46:37.659Z,4.68
2017-05-24T12:49:06.499Z,5.36
2017-05-24T12:51:35.328Z,3.50
2017-05-24T12:54:04.168Z,6.04
2017-05-24T12:56:33.016Z,3.28
2017-05-24T12:59:01.856Z,4.70
2017-05-24T13:01:30.683Z,4.76
2017-05-24T13:03:59.526Z,3.84
2017-05-24T13:06:28.358Z,3.82
2017-05-24T13:08:57.198Z,5.52
2017-05-24T13:11:26.063Z,4.46
2017-05-24T13:13:54.895Z,5.04
2017-05-24T13:16:23.731Z,6.10
2017-05-24T13:18:52.557Z,3.20
2017-05-24T13:21:21.393Z,4.44
2017-05-24T13:23:50.242Z,3.50
2017-05-24T13:26:19.087Z,5.12
2017-05-24T13:28:47.913Z,4.20
2017-05-24T13:31:16.743Z,3.40
2017-05-24T13:33:45.611Z,5.94
2017-05-24T13:36:14.445Z,6.40
2017-05-24T13:38:43.284Z,5.02
2017-05-24T13:41:12.126Z,4.42
2017-05-24T13:43:40.957Z,4.66
2017-05-24T13:46:09.821Z,3.94
2017-05-24T13:48:38.638Z,7.46
2017-05-24T13:51:07.498Z,5.20
2017-05-24T13:53:36.329Z,6.28
2017-05-24T13:56:05.159Z,4.88
2017-05-24T13:58:33.990Z,7.00
2017-05-24T14:01:02.810Z,6.78
2017-05-24T14:03:31.664Z,6.56
2017-05-24T14:06:00.502Z,3.88
2017-05-24T14:08:29.363Z,6.28
2017-05-24T14:10:57.439Z,6.36
2017-05-24T14:13:26.261Z,5.90
2017-05-24T14:15:55.099Z,8.88
2017-05-24T14:18:23.925Z,4.00
2017-05-24T14:20:52.928Z,3.52
2017-05-24T14:23:21.746Z,7.38
2017-05-24T14:25:50.579Z,5.68
2017-05-24T14:28:19.417Z,5.24
2017-05-24T14:30:48.260Z,6.08
2017-05-24T14:33:16.323Z,4.90
2017-05-24T14:35:44.395Z,5.38
2017-05-24T14:38:13.235Z,7.80
2017-05-24T14:40:42.067Z,6.44
2017-05-24T14:43:10.918Z,5.62
2017-05-24T14:45:39.744Z,5.60
2017-05-24T14:48:08.618Z,6.26
2017-05-24T14:50:36.694Z,8.48
2017-05-24T14:53:05.516Z,5.66
2017-05-24T14:55:33.595Z,5.50
2017-05-24T14:58:02.424Z,5.70
2017-05-24T15:00:30.527Z,5.70
2017-05-24T15:02:58.588Z,6.70
2017-05-24T15:05:27.430Z,7.46
2017-05-24T15:07:56.258Z,9.12
2017-05-24T15:10:24.324Z,5.78
2017-05-24T15:12:53.157Z,6.68
2017-05-24T15:15:21.238Z,6.50
2017-05-24T15:17:50.070Z,7.50
2017-05-24T15:20:18.154Z,8.58
2017-05-24T15:22:47.007Z,8.30
2017-05-24T15:25:15.846Z,6.46
2017-05-24T15:27:44.681Z,7.42
2017-05-24T15:30:12.748Z,7.18
2017-05-24T15:32:40.877Z,7.36
2017-05-24T15:35:09.700Z,8.90
2017-05-24T15:37:38.544Z,9.70
2017-05-24T15:40:07.403Z,8.50
2017-05-24T15:42:36.228Z,8.42
2017-05-24T15:45:05.068Z,8.88
2017-05-24T15:47:33.904Z,9.10
2017-05-24T15:50:02.739Z,8.92
2017-05-24T15:52:31.572Z,10.20
2017-05-24T15:54:59.646Z,10.98
2017-05-24T15:57:28.493Z,9.34
2017-05-24T15:59:56.570Z,8.50
2017-05-24T16:02:25.395Z,10.46
2017-05-24T16:04:53.461Z,9.18
2017-05-24T16:07:22.311Z,8.60
2017-05-24T16:09:51.141Z,8.58
2017-05-24T16:12:19.978Z,7.56
2017-05-24T16:14:48.815Z,9.68
2017-05-24T16:17:17.643Z,8.02
2017-05-24T16:19:45.700Z,9.06
2017-05-24T16:37:39.624Z,10.88
2017-05-24T16:40:08.464Z,8.94
2017-05-24T16:42:37.420Z,13.18
2017-05-24T16:45:06.241Z,8.74
2017-05-24T16:47:35.082Z,8.24
2017-05-24T16:50:03.904Z,9.90
2017-05-24T16:52:32.744Z,7.96
2017-05-24T16:59:32.612Z,13.40
2017-05-24T17:02:00.695Z,7.90
2017-05-24T17:04:28.759Z,10.92
2017-05-24T17:06:57.588Z,9.22
2017-05-24T17:09:26.971Z,10.42
2017-05-24T17:11:55.807Z,10.22
2017-05-24T17:14:24.642Z,11.08
2017-05-24T17:16:53.503Z,13.62
2017-05-24T17:19:22.338Z,13.34
2017-05-24T17:21:51.189Z,11.92
2017-05-24T17:24:20.012Z,10.20
2017-05-24T17:26:48.880Z,11.90
2017-05-24T17:29:17.723Z,11.48
2017-05-24T17:31:45.789Z,12.02
2017-05-24T17:34:14.622Z,9.72
2017-05-24T17:36:43.448Z,8.92
2017-05-24T17:39:12.303Z,10.92
2017-05-24T17:41:40.379Z,9.26
2017-05-24T17:44:08.461Z,9.96
2017-05-24T17:46:36.527Z,8.34
2017-05-24T17:49:05.388Z,10.76
2017-05-24T17:51:34.221Z,9.74
2017-05-24T17:54:03.067Z,9.14
2017-05-24T17:56:31.904Z,10.46
2017-05-24T17:59:00.735Z,9.76
2017-05-24T18:01:29.592Z,10.58
2017-05-24T18:03:58.425Z,14.32
2017-05-24T18:06:27.266Z,11.16
2017-05-24T18:08:56.101Z,12.50
2017-05-24T18:11:24.928Z,10.80
2017-05-24T18:13:53.780Z,12.44
2017-05-24T18:16:22.619Z,13.08
2017-05-24T18:18:51.468Z,11.16
2017-05-24T18:21:20.300Z,11.74
2017-05-24T18:23:49.155Z,9.10
2017-05-24T18:26:17.987Z,11.96
2017-05-24T18:28:46.823Z,11.54
2017-05-24T18:31:15.676Z,17.14
2017-05-24T18:33:44.592Z,10.32
2017-05-24T18:36:13.460Z,12.82
2017-05-24T18:38:42.309Z,11.46
2017-05-24T18:41:11.161Z,9.24
2017-05-24T18:43:40.021Z,11.32
2017-05-24T18:46:08.856Z,10.76
2017-05-24T18:48:37.702Z,13.26
2017-05-24T18:51:06.535Z,10.54
2017-05-24T18:53:35.373Z,10.48
2017-05-24T18:56:04.215Z,12.28
2017-05-24T18:58:33.068Z,11.60
2017-05-24T19:01:01.900Z,10.08
2017-05-24T19:03:29.986Z,10.46
2017-05-24T19:05:58.830Z,19.22
2017-05-24T19:08:27.669Z,25.44
2017-05-24T19:10:56.521Z,23.48
2017-05-24T20:22:32.209Z,16.38
2017-05-24T20:25:01.105Z,16.08
2017-05-24T20:27:30.574Z,16.90
2017-05-24T20:29:59.804Z,16.02
2017-05-24T20:32:29.049Z,14.84
2017-05-24T20:34:58.201Z,20.72
2017-05-24T20:37:27.652Z,23.38
2017-05-24T20:39:56.002Z,17.02
2017-05-24T20:42:25.305Z,15.60
2017-05-24T20:44:53.795Z,16.78
2017-05-24T20:47:23.137Z,17.72
2017-05-24T20:49:52.433Z,15.36
2017-05-24T20:52:20.840Z,15.66
2017-05-24T20:54:50.205Z,21.56
2017-05-24T20:57:19.402Z,18.14
2017-05-24T20:59:48.983Z,17.86
2017-05-24T21:02:18.105Z,14.94
2017-05-24T21:04:47.511Z,20.30
2017-05-24T21:07:16.880Z,15.34
2017-05-24T21:09:46.959Z,20.30
2017-05-24T21:12:16.219Z,18.36
2017-05-24T21:14:45.395Z,15.82
2017-05-24T21:17:14.620Z,17.60
2017-05-24T21:19:42.975Z,16.50
2017-05-24T21:22:12.232Z,17.18
2017-05-24T21:24:41.480Z,16.04
2017-05-24T21:27:10.725Z,23.44
2017-05-24T21:29:39.243Z,16.26
2017-05-24T21:32:08.180Z,27.66
2017-05-24T21:34:37.120Z,26.96
2017-05-24T21:37:05.972Z,17.58
2017-05-24T21:39:34.827Z,30.28
2017-05-24T21:42:03.660Z,20.84
2017-05-24T21:44:32.495Z,17.00
2017-05-24T21:47:01.358Z,18.90
2017-05-24T21:49:30.199Z,24.56
2017-05-24T21:51:59.051Z,26.16
2017-05-24T21:54:27.885Z,22.74
2017-05-24T21:56:56.736Z,25.84
2017-05-24T21:59:25.576Z,17.80
2017-05-24T22:01:54.412Z,28.88
2017-05-24T22:04:23.260Z,28.16
2017-05-24T22:06:52.096Z,17.64
2017-05-24T22:09:20.937Z,23.40
2017-05-24T22:11:49.780Z,21.52
2017-05-24T22:14:18.650Z,21.30
2017-05-24T22:16:47.488Z,30.74
2017-05-24T22:19:16.323Z,28.48
2017-05-24T22:21:45.178Z,24.98
2017-05-24T22:24:14.023Z,34.22
2017-05-24T22:26:42.855Z,23.92
2017-05-24T22:29:11.990Z,26.18
2017-05-24T22:31:40.337Z,19.62
2017-05-24T22:34:09.607Z,17.98
2017-05-24T22:36:39.041Z,32.94
2017-05-24T22:39:08.295Z,18.64
2017-05-24T22:41:37.551Z,21.02
2017-05-24T22:44:06.786Z,22.32
2017-05-24T22:46:35.794Z,21.66
2017-05-24T22:49:05.031Z,25.52
2017-05-24T22:51:34.177Z,27.04
2017-05-24T22:54:03.120Z,28.66
2017-05-24T22:56:31.955Z,23.82
2017-05-24T22:59:00.803Z,19.98
2017-05-24T23:01:29.643Z,30.30
2017-05-24T23:03:57.716Z,25.86
2017-05-24T23:06:26.575Z,27.12
2017-05-24T23:08:55.429Z,24.58
2017-05-24T23:11:24.264Z,20.96
2017-05-24T23:13:54.011Z,29.26
2017-05-24T23:16:22.866Z,28.42
2017-05-24T23:18:52.641Z,27.34
2017-05-24T23:21:21.498Z,34.56
2017-05-24T23:23:50.340Z,25.46
2017-05-24T23:26:19.203Z,22.44
2017-05-24T23:28:48.035Z,25.44
2017-05-24T23:31:16.135Z,26.88
2017-05-24T23:33:44.969Z,24.08
2017-05-24T23:36:13.892Z,26.06
2017-05-24T23:38:42.727Z,28.84
2017-05-24T23:41:11.567Z,23.10
2017-05-24T23:43:40.431Z,24.14
2017-05-24T23:46:09.296Z,24.24
2017-05-24T23:48:38.128Z,27.26
2017-05-24T23:51:06.995Z,25.08
2017-05-24T23:53:35.845Z,22.06
2017-05-24T23:56:04.738Z,24.82
2017-05-24T23:58:33.524Z,22.52
